New Orleans, Louisiana
Traffic Map
Current Weather Conditions
New Orleans, Louisiana
Overcast
Overcast
22°
Feels Like: 22°
Wind Chill: 22° Ceiling: 600
Heat Index: 22° Visibility: 5mi
Dew Point: 21° Wind: 7mph
Humidity: 96% Direction: 190° (S)
Pressure: 30.04in Gusts: 0mph
Raw Report DataKNEW 190453Z AUTO 19006KT 5SM OVC006 22/21 A3004 RMK AO2 RAB23E41 CIG 005V012 SLP164 P0000 T02170211
Traffic Incident Summary
Active as of:
Severity:
Category:
InformationThere was an issue retrieving the traffic information for this location. Please try a different location or try again shortly.
Advertisements
Track Severe Weather on mobile